Portada
METAR-TAF:

METAR-TAF

Aeroports :

Salvador, Bahia, Brasil

latitud: 12-54S, longitud: 038-20W, altitud: 6 m

Observació

L'informe es va fer fa 1 hora i 0 minuts, a les 11:00 UTC
Vent 11 kt del Est/Nord-Est
Temperatura 28°C
Humitat 70%
Pressió 1014 hPa
Visibilitat 10 km o més
Núvols disperses a una alçada de 2000 ft

METAR: SBSV 211100Z 07011KT 9999 SCT020 28/22 Q1014

Hora: 09:00 (12:00 UTC)

Pronòstic

L'informe es va fer fa 2 hores i 0 minuts, a les 10:00 UTC
Pronòstic vàlid del 21 a les 12 UTC al 22 a les 12 UTC
Vent 17 kt del Est/Sud-Est
Visibilitat 10 km o més
Núvols disperses a una alçada de 1700 ft
Evolucionant progressivament
l' 21 a les 22 UTC al 21 a les 23 UTC
Vent 9 kt del Est/Sud-Est

TAF: SBSV 211000Z 2112/2212 11017KT 9999 SCT017 TX30/2116Z TN25/2205Z BECMG 2122/2123 11009KT RMK PEU

Observacions i pronòstics meteorològics de més de 4000 aeroports (METAR i TAF).

Les estacions disponibles són els punts grocs i vermells al mapa.

Posi el ratolí al punt desitjat per veure el nom de l'estació.

Feu clic per veure les observacions i els pronòstics meteorològics.

Per canviar el mapa: feu clic els botons verds amb una creu de color negre per apropar; al botó verd amb un guió per allunyar la imatge; o en les fletxes verdes per a mapes adjacents.


METAR-TAF: